createdAt,value
2023-04-14T00:00:33.000Z,431.2900390625
2023-04-14T00:01:35.000Z,429.7845153808594
2023-04-14T00:02:37.000Z,430.9635009765625
2023-04-14T00:03:39.000Z,432.4798278808594
2023-04-14T00:04:42.000Z,433.4656066894531
2023-04-14T00:05:44.000Z,437.38836669921875
2023-04-14T00:06:46.000Z,438.7140808105469
2023-04-14T00:07:49.000Z,439.48797607421875
2023-04-14T00:08:51.000Z,437.2549743652344
2023-04-14T00:09:53.000Z,438.38201904296875
2023-04-14T00:10:55.000Z,439.69854736328125
2023-04-14T00:11:58.000Z,439.013916015625
2023-04-14T00:13:00.000Z,438.2830505371094
2023-04-14T00:14:02.000Z,439.6604309082031
2023-04-14T00:15:04.000Z,441.12799072265625
2023-04-14T00:16:07.000Z,443.0956726074219
2023-04-14T00:17:09.000Z,444.4431457519531
2023-04-14T00:18:11.000Z,445.386962890625
2023-04-14T00:19:13.000Z,447.2270202636719
2023-04-14T00:20:16.000Z,445.2142028808594
2023-04-14T00:21:18.000Z,448.9741516113281
2023-04-14T00:22:20.000Z,452.85791015625
2023-04-14T00:23:22.000Z,451.50048828125
2023-04-14T00:24:25.000Z,450.89312744140625
2023-04-14T00:25:27.000Z,452.41033935546875
2023-04-14T00:26:29.000Z,453.6573791503906
2023-04-14T00:27:32.000Z,456.553466796875
2023-04-14T00:28:34.000Z,456.5342102050781
2023-04-14T00:29:36.000Z,456.7576599121094
2023-04-14T00:30:39.000Z,460.38800048828125
2023-04-14T00:31:41.000Z,459.9678955078125
2023-04-14T00:32:43.000Z,458.2174987792969
2023-04-14T00:33:45.000Z,456.5245666503906
2023-04-14T00:34:48.000Z,458.0671691894531
2023-04-14T00:35:50.000Z,461.9117126464844
2023-04-14T00:36:52.000Z,463.8901672363281
2023-04-14T00:37:54.000Z,461.19671630859375
2023-04-14T00:38:57.000Z,463.163330078125
2023-04-14T00:39:59.000Z,467.2615966796875
2023-04-14T00:41:01.000Z,466.0660705566406
2023-04-14T00:42:03.000Z,465.6459655761719
2023-04-14T00:43:06.000Z,462.72186279296875
2023-04-14T00:44:08.000Z,463.4356384277344
2023-04-14T00:45:10.000Z,462.1042175292969
2023-04-14T00:46:13.000Z,461.7885437011719
2023-04-14T00:47:15.000Z,460.111083984375
2023-04-14T00:48:17.000Z,461.3591613769531
2023-04-14T00:49:19.000Z,462.9977722167969
2023-04-14T00:50:22.000Z,462.3672180175781
2023-04-14T00:51:24.000Z,459.2558288574219
2023-04-14T00:52:26.000Z,461.1734313964844
2023-04-14T00:53:28.000Z,463.6978759765625
2023-04-14T00:54:31.000Z,459.0790710449219
2023-04-14T00:55:33.000Z,455.23974609375
2023-04-14T00:56:35.000Z,455.4554748535156
2023-04-14T00:57:37.000Z,456.9560546875
2023-04-14T00:58:40.000Z,456.4161071777344
2023-04-14T00:59:42.000Z,455.6519470214844
2023-04-14T01:00:44.000Z,457.3555908203125
2023-04-14T01:01:47.000Z,459.52703857421875
2023-04-14T01:02:49.000Z,464.2852783203125
2023-04-14T01:03:51.000Z,467.15093994140625
2023-04-14T01:04:53.000Z,469.6741943359375
2023-04-14T01:05:56.000Z,470.1315002441406
2023-04-14T01:06:58.000Z,470.71136474609375
2023-04-14T01:08:00.000Z,471.8026428222656
2023-04-14T01:09:02.000Z,471.9300537109375
2023-04-14T01:10:05.000Z,467.4219665527344
2023-04-14T01:11:07.000Z,465.28399658203125
2023-04-14T01:12:09.000Z,464.4779357910156
2023-04-14T01:13:12.000Z,465.0748596191406
2023-04-14T01:14:14.000Z,466.2709045410156
2023-04-14T01:15:16.000Z,465.8001403808594
2023-04-14T01:16:18.000Z,465.4934997558594
2023-04-14T01:17:20.000Z,465.555419921875
2023-04-14T01:18:23.000Z,465.3924865722656
2023-04-14T01:19:25.000Z,461.5478210449219
2023-04-14T01:20:27.000Z,462.1379699707031
2023-04-14T01:21:30.000Z,462.96514892578125
2023-04-14T01:22:32.000Z,464.0440368652344
2023-04-14T01:23:34.000Z,466.5135498046875
2023-04-14T01:24:36.000Z,466.8006896972656
2023-04-14T01:25:39.000Z,468.23065185546875
2023-04-14T01:26:41.000Z,470.6947326660156
2023-04-14T01:27:43.000Z,470.0087890625
2023-04-14T01:28:45.000Z,469.6711730957031
2023-04-14T01:29:48.000Z,468.8457946777344
2023-04-14T01:30:50.000Z,467.0550842285156
2023-04-14T01:31:52.000Z,466.87567138671875
2023-04-14T01:32:54.000Z,466.744384765625
2023-04-14T01:33:57.000Z,468.0547180175781
2023-04-14T01:34:59.000Z,469.924560546875
2023-04-14T01:36:01.000Z,471.8949279785156
2023-04-14T01:37:03.000Z,472.67413330078125
2023-04-14T01:38:06.000Z,469.78619384765625
2023-04-14T01:39:08.000Z,469.7706298828125
2023-04-14T01:40:10.000Z,472.47332763671875
2023-04-14T01:41:12.000Z,469.9411315917969
2023-04-14T01:42:15.000Z,468.89202880859375
2023-04-14T01:43:17.000Z,466.0006103515625
2023-04-14T01:44:19.000Z,462.3689270019531
2023-04-14T01:45:21.000Z,460.83111572265625
2023-04-14T01:46:24.000Z,461.6487731933594
2023-04-14T01:47:26.000Z,463.9493713378906
2023-04-14T01:48:28.000Z,466.63543701171875
2023-04-14T01:49:30.000Z,466.52862548828125
2023-04-14T01:50:33.000Z,467.86865234375
2023-04-14T01:51:35.000Z,469.7978820800781
2023-04-14T01:52:37.000Z,470.4590148925781
2023-04-14T01:53:40.000Z,471.9176330566406
2023-04-14T01:54:42.000Z,476.22430419921875
2023-04-14T01:55:44.000Z,479.73565673828125
2023-04-14T01:56:46.000Z,479.168212890625
2023-04-14T01:57:49.000Z,480.5497131347656
2023-04-14T01:58:51.000Z,478.8781433105469
2023-04-14T01:59:53.000Z,480.4281005859375
2023-04-14T02:00:55.000Z,488.454345703125
2023-04-14T02:01:58.000Z,490.7684631347656
2023-04-14T02:03:00.000Z,487.7808532714844
2023-04-14T02:04:02.000Z,488.4132080078125
2023-04-14T02:05:04.000Z,486.7497253417969
2023-04-14T02:06:07.000Z,482.0878601074219
2023-04-14T02:07:09.000Z,483.1459045410156
2023-04-14T02:08:11.000Z,483.093994140625
2023-04-14T02:09:13.000Z,481.4245300292969
2023-04-14T02:10:16.000Z,479.0252990722656
2023-04-14T02:11:18.000Z,479.9021911621094
2023-04-14T02:12:20.000Z,478.1956481933594
2023-04-14T02:13:22.000Z,480.62017822265625
2023-04-14T02:14:25.000Z,483.29681396484375
2023-04-14T02:15:27.000Z,482.83624267578125
2023-04-14T02:16:29.000Z,482.9592590332031
2023-04-14T02:17:32.000Z,484.02252197265625
2023-04-14T02:18:34.000Z,484.2838439941406
2023-04-14T02:19:36.000Z,484.1686096191406
2023-04-14T02:20:38.000Z,482.2745666503906
2023-04-14T02:21:40.000Z,477.7516174316406
2023-04-14T02:22:43.000Z,476.5184631347656
2023-04-14T02:23:45.000Z,475.06365966796875
2023-04-14T02:24:47.000Z,471.6132507324219
2023-04-14T02:25:49.000Z,468.3565979003906
2023-04-14T02:26:52.000Z,465.95416259765625
2023-04-14T02:27:54.000Z,462.7870178222656
2023-04-14T02:28:56.000Z,462.5528564453125
2023-04-14T02:29:58.000Z,462.0868225097656
2023-04-14T02:31:01.000Z,461.68524169921875
2023-04-14T02:32:03.000Z,458.90338134765625
2023-04-14T02:33:05.000Z,453.0276184082031
2023-04-14T02:34:07.000Z,452.8436584472656
2023-04-14T02:35:10.000Z,453.3283996582031
2023-04-14T02:36:12.000Z,452.42352294921875
2023-04-14T02:37:14.000Z,451.98101806640625
2023-04-14T02:38:16.000Z,453.06243896484375
2023-04-14T02:39:19.000Z,452.0767822265625
2023-04-14T02:40:21.000Z,451.0682067871094
2023-04-14T02:41:23.000Z,446.6031188964844
2023-04-14T02:42:25.000Z,447.86859130859375
2023-04-14T02:43:28.000Z,450.0238342285156
2023-04-14T02:44:30.000Z,450.1788330078125
2023-04-14T02:45:32.000Z,451.5837097167969
2023-04-14T02:46:34.000Z,449.2131042480469
2023-04-14T02:47:37.000Z,450.0306091308594
2023-04-14T02:48:39.000Z,450.849853515625
2023-04-14T02:49:41.000Z,453.27392578125
2023-04-14T02:50:43.000Z,455.0965881347656
2023-04-14T02:51:45.000Z,450.96173095703125
2023-04-14T02:52:48.000Z,448.589111328125
2023-04-14T02:53:50.000Z,448.1058654785156
2023-04-14T02:54:52.000Z,450.3417663574219
2023-04-14T02:55:54.000Z,450.63916015625
2023-04-14T02:56:57.000Z,451.9306335449219
2023-04-14T02:57:59.000Z,452.288330078125
2023-04-14T02:59:01.000Z,452.89697265625
2023-04-14T03:00:04.000Z,450.4536437988281
2023-04-14T03:01:06.000Z,450.08380126953125
2023-04-14T03:02:08.000Z,451.0610656738281
2023-04-14T03:03:10.000Z,451.0574645996094
2023-04-14T03:04:13.000Z,453.94219970703125
2023-04-14T03:05:15.000Z,455.1023864746094
2023-04-14T03:06:17.000Z,457.38409423828125
2023-04-14T03:07:19.000Z,460.96734619140625
2023-04-14T03:08:22.000Z,461.4723815917969
2023-04-14T03:09:24.000Z,461.059814453125
2023-04-14T03:10:26.000Z,461.86322021484375
2023-04-14T03:11:28.000Z,464.10333251953125
2023-04-14T03:12:31.000Z,464.6141357421875
2023-04-14T03:13:33.000Z,464.32586669921875
2023-04-14T03:14:35.000Z,465.6942138671875
2023-04-14T03:15:37.000Z,464.9498596191406
2023-04-14T03:16:40.000Z,463.7420654296875
2023-04-14T03:17:42.000Z,464.4686279296875
2023-04-14T03:18:44.000Z,463.7048034667969
2023-04-14T03:19:46.000Z,462.82183837890625
2023-04-14T03:20:49.000Z,462.5383605957031
2023-04-14T03:21:51.000Z,461.9578552246094
2023-04-14T03:22:53.000Z,461.3130798339844
2023-04-14T03:23:55.000Z,465.60186767578125
2023-04-14T03:24:58.000Z,468.2517395019531
2023-04-14T03:26:00.000Z,467.9834899902344
2023-04-14T03:27:02.000Z,467.8771667480469
2023-04-14T03:28:04.000Z,467.1236572265625
2023-04-14T03:29:06.000Z,461.50555419921875
2023-04-14T03:30:09.000Z,461.8993225097656
2023-04-14T03:31:11.000Z,461.74945068359375
2023-04-14T03:32:13.000Z,460.6744079589844
2023-04-14T03:33:15.000Z,458.4165954589844
2023-04-14T03:34:18.000Z,458.1494140625
2023-04-14T03:35:20.000Z,458.615478515625
2023-04-14T03:36:22.000Z,458.15264892578125
2023-04-14T03:37:24.000Z,458.1325378417969
2023-04-14T03:38:27.000Z,459.8551940917969
2023-04-14T03:39:29.000Z,459.65203857421875
2023-04-14T03:40:31.000Z,460.1932067871094
2023-04-14T03:41:34.000Z,461.4225158691406
2023-04-14T03:42:36.000Z,462.9122619628906
2023-04-14T03:43:38.000Z,462.6527404785156
2023-04-14T03:44:40.000Z,460.826171875
2023-04-14T03:45:43.000Z,457.8572082519531
2023-04-14T03:46:45.000Z,458.8676452636719
2023-04-14T03:47:47.000Z,460.5755310058594
2023-04-14T03:48:50.000Z,460.2542724609375
2023-04-14T03:49:52.000Z,457.055908203125
2023-04-14T03:50:54.000Z,454.1924743652344
2023-04-14T03:51:56.000Z,453.0433044433594
2023-04-14T03:52:59.000Z,450.3846435546875
2023-04-14T03:54:01.000Z,449.31829833984375
2023-04-14T03:55:03.000Z,449.9564208984375
2023-04-14T03:56:05.000Z,449.5649108886719
2023-04-14T03:57:08.000Z,447.4883728027344
2023-04-14T03:58:10.000Z,449.07342529296875
2023-04-14T03:59:12.000Z,451.15203857421875
2023-04-14T04:00:14.000Z,450.80328369140625
2023-04-14T04:01:17.000Z,453.4718933105469
2023-04-14T04:02:19.000Z,456.12628173828125
2023-04-14T04:03:21.000Z,457.53466796875
2023-04-14T04:04:23.000Z,456.9029541015625
2023-04-14T04:05:26.000Z,455.97265625
2023-04-14T04:06:28.000Z,452.2663879394531
2023-04-14T04:07:30.000Z,452.8969421386719
2023-04-14T04:08:32.000Z,453.42779541015625
2023-04-14T04:09:35.000Z,454.6712341308594
2023-04-14T04:10:37.000Z,454.7457275390625
2023-04-14T04:11:39.000Z,453.5667724609375
2023-04-14T04:12:41.000Z,454.1210021972656
2023-04-14T04:13:44.000Z,455.5859375
2023-04-14T04:14:46.000Z,455.6092529296875
2023-04-14T04:15:48.000Z,455.16656494140625
2023-04-14T04:16:51.000Z,454.1786193847656
2023-04-14T04:17:53.000Z,454.1090393066406
2023-04-14T04:18:55.000Z,456.43206787109375
2023-04-14T04:19:57.000Z,456.9432678222656
2023-04-14T04:21:00.000Z,457.98675537109375
2023-04-14T04:22:02.000Z,460.9124755859375
2023-04-14T04:23:04.000Z,459.47509765625
2023-04-14T04:24:06.000Z,458.9408874511719
2023-04-14T04:25:09.000Z,460.436279296875
2023-04-14T04:26:11.000Z,461.81298828125
2023-04-14T04:27:13.000Z,461.8708190917969
2023-04-14T04:28:16.000Z,460.8288269042969
2023-04-14T04:29:18.000Z,461.2035827636719
2023-04-14T04:30:20.000Z,461.6698913574219
2023-04-14T04:31:22.000Z,459.8544921875
2023-04-14T04:32:24.000Z,459.68524169921875
2023-04-14T04:33:27.000Z,457.37335205078125
2023-04-14T04:34:29.000Z,457.3316955566406
2023-04-14T04:35:31.000Z,458.9497375488281
2023-04-14T04:36:33.000Z,460.8223571777344
2023-04-14T04:37:36.000Z,460.08123779296875
2023-04-14T04:38:38.000Z,460.4143371582031
2023-04-14T04:39:40.000Z,459.9247741699219
2023-04-14T04:40:42.000Z,464.4502868652344
2023-04-14T04:41:45.000Z,462.81097412109375
2023-04-14T04:42:47.000Z,463.14862060546875
2023-04-14T04:43:49.000Z,459.885009765625
2023-04-14T04:44:52.000Z,457.0223083496094
2023-04-14T04:45:54.000Z,455.3793029785156
2023-04-14T04:46:56.000Z,456.1875915527344
2023-04-14T04:47:59.000Z,457.5273742675781
2023-04-14T04:49:01.000Z,460.6103210449219
2023-04-14T04:50:03.000Z,461.6913757324219
2023-04-14T04:51:05.000Z,463.2853698730469
2023-04-14T04:52:07.000Z,463.0458984375
2023-04-14T04:53:10.000Z,463.3825988769531
2023-04-14T04:54:12.000Z,464.0158386230469
2023-04-14T04:55:14.000Z,464.9821472167969
2023-04-14T04:56:16.000Z,463.69219970703125
2023-04-14T04:57:19.000Z,461.5577392578125
2023-04-14T04:58:21.000Z,461.8643798828125
2023-04-14T04:59:23.000Z,463.6690368652344
2023-04-14T05:00:25.000Z,464.7739562988281
2023-04-14T05:01:28.000Z,467.2033996582031
2023-04-14T05:02:30.000Z,467.6369323730469
2023-04-14T05:03:32.000Z,468.0498962402344
2023-04-14T05:04:35.000Z,469.2831726074219
2023-04-14T05:05:37.000Z,466.9700927734375
2023-04-14T05:06:39.000Z,461.8258972167969
2023-04-14T05:07:41.000Z,458.5372009277344
2023-04-14T05:08:44.000Z,457.4872741699219
2023-04-14T05:09:46.000Z,456.31298828125
2023-04-14T05:10:48.000Z,457.66717529296875
2023-04-14T05:11:50.000Z,457.7620544433594
2023-04-14T05:12:53.000Z,457.4474182128906
2023-04-14T05:13:55.000Z,456.3116760253906
2023-04-14T05:14:57.000Z,454.3917236328125
2023-04-14T05:16:00.000Z,453.6472473144531
2023-04-14T05:17:02.000Z,454.40447998046875
2023-04-14T05:18:04.000Z,453.8946533203125
2023-04-14T05:19:06.000Z,455.71002197265625
2023-04-14T05:20:09.000Z,454.7728576660156
2023-04-14T05:21:11.000Z,456.0398254394531
2023-04-14T05:22:13.000Z,457.0212097167969
2023-04-14T05:23:15.000Z,457.1992492675781
2023-04-14T05:24:18.000Z,457.1669616699219
2023-04-14T05:25:20.000Z,455.9238586425781
2023-04-14T05:26:22.000Z,454.1441955566406
2023-04-14T05:27:24.000Z,453.93023681640625
2023-04-14T05:28:26.000Z,451.46160888671875
2023-04-14T05:29:29.000Z,451.8674621582031
2023-04-14T05:30:31.000Z,452.9723815917969
2023-04-14T05:31:33.000Z,450.8906555175781
2023-04-14T05:32:35.000Z,450.2704162597656
2023-04-14T05:33:38.000Z,449.0278015136719
2023-04-14T05:34:40.000Z,448.69305419921875
2023-04-14T05:35:42.000Z,450.35260009765625
2023-04-14T05:36:44.000Z,450.35772705078125
2023-04-14T05:37:47.000Z,449.7852783203125
2023-04-14T05:38:49.000Z,447.435791015625
2023-04-14T05:39:51.000Z,446.24981689453125
2023-04-14T05:40:54.000Z,446.0578308105469
2023-04-14T05:41:56.000Z,447.5403137207031
2023-04-14T05:42:58.000Z,450.56036376953125
2023-04-14T05:44:00.000Z,451.88348388671875
2023-04-14T05:45:03.000Z,454.6385803222656
2023-04-14T05:46:05.000Z,454.6497802734375
2023-04-14T05:47:07.000Z,452.3265686035156
2023-04-14T05:48:09.000Z,451.1239929199219
2023-04-14T05:49:12.000Z,449.51763916015625
2023-04-14T05:50:14.000Z,447.9744873046875
2023-04-14T05:51:16.000Z,447.89422607421875
2023-04-14T05:52:18.000Z,448.44525146484375
2023-04-14T05:53:21.000Z,450.18743896484375
2023-04-14T05:54:23.000Z,449.6116943359375
2023-04-14T05:55:25.000Z,449.054443359375
2023-04-14T05:56:27.000Z,448.3143615722656
2023-04-14T05:57:30.000Z,447.40118408203125
2023-04-14T05:58:32.000Z,451.114013671875
2023-04-14T05:59:34.000Z,449.84271240234375
2023-04-14T06:00:37.000Z,450.41046142578125
2023-04-14T06:01:39.000Z,453.00177001953125
2023-04-14T06:02:41.000Z,450.89764404296875
2023-04-14T06:03:43.000Z,451.21380615234375
2023-04-14T06:04:46.000Z,451.345458984375
2023-04-14T06:05:48.000Z,446.1964111328125
2023-04-14T06:06:50.000Z,445.23193359375
2023-04-14T06:07:53.000Z,445.5221862792969
2023-04-14T06:08:55.000Z,444.547119140625
2023-04-14T06:09:57.000Z,446.7154541015625
2023-04-14T06:10:59.000Z,447.6029968261719
2023-04-14T06:12:02.000Z,448.5936584472656
2023-04-14T06:13:04.000Z,445.7608947753906
2023-04-14T06:14:06.000Z,443.8139953613281
2023-04-14T06:15:08.000Z,442.5789794921875
2023-04-14T06:16:11.000Z,441.6121826171875
2023-04-14T06:17:13.000Z,442.83038330078125
2023-04-14T06:18:15.000Z,442.9609069824219
2023-04-14T06:19:17.000Z,443.9598388671875
2023-04-14T06:20:20.000Z,443.7030334472656
2023-04-14T06:21:22.000Z,442.2215270996094
2023-04-14T06:22:24.000Z,441.1095275878906
2023-04-14T06:23:26.000Z,443.60791015625
2023-04-14T06:24:28.000Z,446.49371337890625
2023-04-14T06:25:31.000Z,450.4747009277344
2023-04-14T06:26:33.000Z,450.0233154296875
2023-04-14T06:27:35.000Z,449.92718505859375
2023-04-14T06:28:38.000Z,446.427734375
2023-04-14T06:29:40.000Z,448.41204833984375
2023-04-14T06:30:42.000Z,445.85888671875
2023-04-14T06:31:44.000Z,443.9634704589844
2023-04-14T06:32:47.000Z,443.7264404296875
2023-04-14T06:33:49.000Z,443.8017272949219
2023-04-14T06:34:51.000Z,443.7193908691406
2023-04-14T06:35:53.000Z,444.0243225097656
2023-04-14T06:36:55.000Z,446.51116943359375
2023-04-14T06:37:58.000Z,448.1534118652344
2023-04-14T06:39:00.000Z,446.43115234375
2023-04-14T06:40:02.000Z,448.2178039550781
2023-04-14T06:41:04.000Z,450.22564697265625
2023-04-14T06:42:07.000Z,449.2768859863281
2023-04-14T06:43:09.000Z,449.18902587890625
2023-04-14T06:44:11.000Z,449.0322265625
2023-04-14T06:45:13.000Z,449.5993957519531
2023-04-14T06:46:16.000Z,449.01312255859375
2023-04-14T06:47:18.000Z,447.3868103027344
2023-04-14T06:48:20.000Z,448.16705322265625
2023-04-14T06:49:22.000Z,448.1973571777344
2023-04-14T06:50:25.000Z,446.4884338378906
2023-04-14T06:51:27.000Z,445.9853820800781
2023-04-14T06:52:29.000Z,445.6501770019531
2023-04-14T06:53:32.000Z,446.3147277832031
2023-04-14T06:54:34.000Z,445.97552490234375
2023-04-14T06:55:36.000Z,448.2345275878906
2023-04-14T06:56:38.000Z,449.47332763671875
2023-04-14T06:57:40.000Z,449.6842956542969
2023-04-14T06:58:43.000Z,448.3521728515625
2023-04-14T06:59:45.000Z,448.21038818359375
2023-04-14T07:00:47.000Z,449.47271728515625
2023-04-14T07:01:49.000Z,449.71392822265625
2023-04-14T07:02:52.000Z,448.3071594238281
2023-04-14T07:03:54.000Z,448.8785095214844
2023-04-14T07:04:56.000Z,448.19189453125
2023-04-14T07:05:58.000Z,446.52197265625
2023-04-14T07:07:01.000Z,448.574462890625
2023-04-14T07:08:03.000Z,449.1155090332031
2023-04-14T07:09:05.000Z,447.4697265625
2023-04-14T07:10:07.000Z,447.9525146484375
2023-04-14T07:11:10.000Z,448.8965148925781
2023-04-14T07:12:12.000Z,448.3733215332031
2023-04-14T07:13:14.000Z,454.2541198730469
2023-04-14T07:14:16.000Z,453.81549072265625
2023-04-14T07:15:19.000Z,456.3105773925781
2023-04-14T07:16:21.000Z,458.1062927246094
2023-04-14T07:17:23.000Z,458.392822265625
2023-04-14T07:18:25.000Z,458.0185852050781
2023-04-14T07:19:27.000Z,457.6453552246094
2023-04-14T07:20:30.000Z,458.6600646972656
2023-04-14T07:21:32.000Z,458.1325378417969
2023-04-14T07:22:34.000Z,459.91607666015625
2023-04-14T07:23:36.000Z,459.8813171386719
2023-04-14T07:24:39.000Z,463.9415588378906
2023-04-14T07:25:41.000Z,463.044921875
2023-04-14T07:26:43.000Z,458.7471008300781
2023-04-14T07:27:45.000Z,459.4071960449219
2023-04-14T07:28:48.000Z,458.93157958984375
2023-04-14T07:29:50.000Z,458.6935729980469
2023-04-14T07:30:52.000Z,463.4740295410156
2023-04-14T07:31:54.000Z,465.35931396484375
2023-04-14T07:32:57.000Z,463.1813659667969
2023-04-14T07:33:59.000Z,462.7075500488281
2023-04-14T07:35:01.000Z,463.0213928222656
2023-04-14T07:36:03.000Z,459.8251647949219
2023-04-14T07:37:06.000Z,457.6155700683594
2023-04-14T07:38:08.000Z,456.4694519042969
2023-04-14T07:39:10.000Z,457.3307189941406
2023-04-14T07:40:13.000Z,458.3050231933594
2023-04-14T07:41:15.000Z,455.80157470703125
2023-04-14T07:42:17.000Z,454.34912109375
2023-04-14T07:43:19.000Z,452.7735595703125
2023-04-14T07:44:22.000Z,453.9903259277344
2023-04-14T07:45:24.000Z,454.9395446777344
2023-04-14T07:46:26.000Z,453.9641418457031
2023-04-14T07:47:28.000Z,454.6701965332031
2023-04-14T07:48:31.000Z,456.9689636230469
2023-04-14T07:49:33.000Z,462.64434814453125
2023-04-14T07:50:35.000Z,463.4136962890625
2023-04-14T07:51:37.000Z,468.74566650390625
2023-04-14T07:52:40.000Z,469.4763488769531
2023-04-14T07:53:42.000Z,467.3197326660156
2023-04-14T07:54:44.000Z,465.50177001953125
2023-04-14T07:55:46.000Z,464.1544189453125
2023-04-14T07:56:49.000Z,464.3434143066406
2023-04-14T07:57:51.000Z,463.3689270019531
2023-04-14T07:58:53.000Z,462.8060607910156
2023-04-14T07:59:55.000Z,459.1580505371094
2023-04-14T08:00:58.000Z,458.6077575683594
2023-04-14T08:02:00.000Z,457.4588623046875
2023-04-14T08:03:02.000Z,455.5492248535156
2023-04-14T08:04:04.000Z,454.6199951171875
2023-04-14T08:05:07.000Z,452.39691162109375
2023-04-14T08:06:09.000Z,452.2605895996094
2023-04-14T08:07:11.000Z,453.3995056152344
2023-04-14T08:08:13.000Z,450.2535400390625
2023-04-14T08:09:16.000Z,450.5397033691406
2023-04-14T08:10:18.000Z,448.3111267089844
2023-04-14T08:11:20.000Z,448.4891357421875
2023-04-14T08:12:22.000Z,447.8362121582031
2023-04-14T08:13:25.000Z,446.0583190917969
2023-04-14T08:14:27.000Z,445.6890563964844
2023-04-14T08:15:29.000Z,444.4190368652344
2023-04-14T08:16:31.000Z,442.9924621582031
2023-04-14T08:17:34.000Z,441.24102783203125
2023-04-14T08:18:36.000Z,440.406494140625
2023-04-14T08:19:38.000Z,443.6903381347656
2023-04-14T08:20:40.000Z,443.5043640136719
2023-04-14T08:21:43.000Z,446.5308532714844
2023-04-14T08:22:45.000Z,447.66009521484375
2023-04-14T08:23:47.000Z,447.0304870605469
2023-04-14T08:24:49.000Z,442.945068359375
2023-04-14T08:24:49.000Z,442.945068359375
2023-04-14T08:25:51.000Z,444.4593811035156
2023-04-14T08:25:51.000Z,444.4593811035156
2023-04-14T08:26:54.000Z,442.1689758300781
2023-04-14T08:26:54.000Z,442.1689758300781
2023-04-14T08:27:56.000Z,442.037353515625
2023-04-14T08:27:56.000Z,442.037353515625
2023-04-14T08:28:58.000Z,445.5472412109375
2023-04-14T08:28:58.000Z,445.5472412109375
2023-04-14T08:30:01.000Z,447.5614929199219
2023-04-14T08:30:01.000Z,447.5614929199219
2023-04-14T08:31:03.000Z,451.50689697265625
2023-04-14T08:31:03.000Z,451.50689697265625
2023-04-14T08:32:05.000Z,453.4657287597656
2023-04-14T08:32:05.000Z,453.4657287597656
2023-04-14T08:33:08.000Z,453.5560607910156
2023-04-14T08:33:08.000Z,453.5560607910156
2023-04-14T08:34:10.000Z,451.9049072265625
2023-04-14T08:34:10.000Z,451.9049072265625
2023-04-14T08:35:12.000Z,449.496337890625
2023-04-14T08:36:14.000Z,447.87890625
2023-04-14T08:37:16.000Z,447.733154296875
2023-04-14T08:38:19.000Z,446.0943603515625
2023-04-14T08:39:21.000Z,443.067626953125
2023-04-14T08:40:23.000Z,440.06524658203125
2023-04-14T08:41:25.000Z,438.3128662109375
2023-04-14T08:42:28.000Z,438.9340515136719
2023-04-14T08:43:30.000Z,436.0561828613281
2023-04-14T08:44:32.000Z,437.77789306640625
2023-04-14T08:45:34.000Z,438.372802734375
2023-04-14T08:46:37.000Z,439.0391540527344
2023-04-14T08:47:39.000Z,440.5962219238281
2023-04-14T08:48:41.000Z,443.1009826660156
2023-04-14T08:49:43.000Z,443.8277587890625
2023-04-14T08:50:46.000Z,443.6943359375
2023-04-14T08:51:48.000Z,442.2736511230469
2023-04-14T08:52:50.000Z,440.35626220703125
2023-04-14T08:53:53.000Z,438.5062561035156
2023-04-14T08:54:55.000Z,439.5082702636719
2023-04-14T08:55:57.000Z,437.19256591796875
2023-04-14T08:56:59.000Z,439.9075622558594
2023-04-14T08:58:01.000Z,437.7005310058594
2023-04-14T08:59:04.000Z,440.0986328125
2023-04-14T09:00:06.000Z,438.1432800292969
2023-04-14T09:01:08.000Z,439.3329162597656
2023-04-14T09:02:10.000Z,440.3807373046875
2023-04-14T09:03:13.000Z,438.0207824707031
2023-04-14T09:04:15.000Z,439.6824035644531
2023-04-14T09:05:17.000Z,440.2636413574219
2023-04-14T09:06:19.000Z,440.25616455078125
2023-04-14T09:07:22.000Z,440.0867919921875
2023-04-14T09:08:24.000Z,439.4376220703125
2023-04-14T09:09:26.000Z,436.168212890625
2023-04-14T09:10:28.000Z,434.6097412109375
2023-04-14T09:11:31.000Z,433.7421569824219
2023-04-14T09:12:33.000Z,433.4068603515625
2023-04-14T09:13:35.000Z,432.5251770019531
2023-04-14T09:14:37.000Z,429.91436767578125
2023-04-14T09:15:40.000Z,432.1694641113281
2023-04-14T09:16:42.000Z,431.3393249511719
2023-04-14T09:17:44.000Z,430.1687316894531
2023-04-14T09:18:47.000Z,433.7294921875
2023-04-14T09:19:49.000Z,431.98345947265625
2023-04-14T09:20:51.000Z,432.6260986328125
2023-04-14T09:21:53.000Z,431.421875
2023-04-14T09:22:56.000Z,428.2476501464844
2023-04-14T09:23:58.000Z,429.990234375
2023-04-14T09:25:00.000Z,428.2241516113281
2023-04-14T09:26:02.000Z,429.99761962890625
2023-04-14T09:27:05.000Z,428.4789123535156
2023-04-14T09:28:07.000Z,430.4737854003906